createdAt,value
2019-03-18T00:04:29.290Z,4.33
2019-03-18T00:09:25.202Z,4.37
2019-03-18T00:14:21.114Z,3.67
2019-03-18T00:19:17.040Z,4.00
2019-03-18T00:24:21.193Z,4.43
2019-03-18T00:29:17.323Z,4.00
2019-03-18T00:34:13.203Z,4.23
2019-03-18T00:39:09.122Z,5.17
2019-03-18T00:44:05.052Z,4.33
2019-03-18T00:49:00.960Z,3.80
2019-03-18T00:54:02.097Z,3.83
2019-03-18T00:58:58.058Z,4.20
2019-03-18T01:03:54.030Z,4.60
2019-03-18T01:08:49.940Z,3.33
2019-03-18T01:13:45.848Z,3.40
2019-03-18T01:18:41.753Z,4.00
2019-03-18T01:23:37.658Z,2.83
2019-03-18T01:28:33.566Z,3.43
2019-03-18T01:33:29.475Z,3.03
2019-03-18T01:38:25.535Z,4.00
2019-03-18T01:43:21.479Z,3.70
2019-03-18T01:48:17.391Z,4.47
2019-03-18T01:53:13.308Z,4.10
2019-03-18T01:58:09.249Z,2.43
2019-03-18T02:03:05.155Z,4.20
2019-03-18T02:08:01.064Z,3.50
2019-03-18T02:12:57.022Z,3.57
2019-03-18T02:17:52.932Z,4.47
2019-03-18T02:22:48.837Z,2.43
2019-03-18T02:27:44.746Z,1.80
2019-03-18T02:32:40.659Z,4.60
2019-03-18T02:37:36.599Z,3.20
2019-03-18T02:42:32.507Z,3.80
2019-03-18T02:47:28.426Z,2.93
2019-03-18T02:52:24.609Z,3.03
2019-03-18T02:57:20.596Z,3.33
2019-03-18T03:02:16.509Z,5.67
2019-03-18T03:07:12.431Z,5.07
2019-03-18T03:12:08.340Z,3.07
2019-03-18T03:17:04.354Z,3.47
2019-03-18T03:22:00.262Z,4.97
2019-03-18T03:26:56.434Z,7.13
2019-03-18T03:31:52.404Z,4.93
2019-03-18T03:36:48.320Z,9.10
2019-03-18T03:41:44.252Z,5.10
2019-03-18T03:46:43.465Z,8.17
2019-03-18T03:51:37.954Z,10.60
2019-03-18T03:56:33.968Z,10.90
2019-03-18T04:01:29.970Z,7.93
2019-03-18T04:06:25.973Z,7.00
2019-03-18T04:11:21.885Z,9.00
2019-03-18T04:16:17.781Z,9.00
2019-03-18T04:21:13.683Z,14.43
2019-03-18T04:26:09.602Z,10.17
2019-03-18T04:31:05.598Z,10.90
2019-03-18T04:36:01.522Z,12.70
2019-03-18T04:40:57.541Z,6.80
2019-03-18T04:45:53.454Z,11.57
2019-03-18T04:50:49.363Z,8.80
2019-03-18T04:55:45.338Z,6.93
2019-03-18T05:00:41.248Z,8.10
2019-03-18T05:05:37.228Z,8.30
2019-03-18T05:10:33.147Z,4.20
2019-03-18T05:15:29.055Z,8.80
2019-03-18T05:20:24.967Z,6.17
2019-03-18T05:25:20.951Z,11.37
2019-03-18T05:30:16.874Z,8.20
2019-03-18T05:35:12.782Z,5.50
2019-03-18T05:40:08.898Z,13.63
2019-03-18T05:45:10.887Z,10.90
2019-03-18T05:50:14.785Z,7.70
2019-03-18T05:55:15.953Z,11.40
2019-03-18T06:00:14.001Z,13.10
2019-03-18T06:05:10.192Z,13.80
2019-03-18T06:10:08.459Z,13.30
2019-03-18T06:15:07.268Z,9.13
2019-03-18T06:20:06.178Z,9.50
2019-03-18T06:25:03.600Z,11.03
2019-03-18T06:29:59.556Z,6.77
2019-03-18T06:34:55.586Z,12.53
2019-03-18T06:39:51.495Z,10.33
2019-03-18T06:44:47.431Z,5.90
2019-03-18T06:49:43.363Z,9.63
2019-03-18T06:54:39.959Z,8.33
2019-03-18T06:59:35.931Z,8.17
2019-03-18T07:04:31.850Z,13.90
2019-03-18T07:09:27.760Z,8.90
2019-03-18T07:14:23.672Z,13.47
2019-03-18T07:19:19.614Z,7.90
2019-03-18T07:24:22.514Z,8.77
2019-03-18T07:29:18.515Z,4.57
2019-03-18T07:34:14.541Z,11.90
2019-03-18T07:39:10.450Z,7.67
2019-03-18T07:44:06.364Z,7.03
2019-03-18T07:49:02.395Z,6.40
2019-03-18T07:54:06.303Z,6.97
2019-03-18T07:59:02.318Z,7.40
2019-03-18T08:03:58.241Z,5.33
2019-03-18T08:08:54.150Z,7.30
2019-03-18T08:13:50.055Z,6.43
2019-03-18T08:18:45.966Z,8.93
2019-03-18T08:23:41.841Z,6.30
2019-03-18T08:28:37.747Z,5.60
2019-03-18T08:33:33.658Z,5.27
2019-03-18T08:38:29.569Z,2.77
2019-03-18T08:43:25.477Z,6.50
2019-03-18T08:48:21.413Z,3.50
2019-03-18T08:53:17.426Z,4.93
2019-03-18T08:58:13.370Z,3.60
2019-03-18T09:03:09.271Z,3.93
2019-03-18T09:08:05.180Z,3.00
2019-03-18T09:13:01.239Z,4.07
2019-03-18T09:17:57.682Z,4.03
2019-03-18T09:22:53.604Z,4.37
2019-03-18T09:27:49.517Z,2.90
2019-03-18T09:32:45.527Z,4.87
2019-03-18T09:37:41.558Z,3.47
2019-03-18T09:42:37.468Z,3.20
2019-03-18T09:47:33.372Z,3.63
2019-03-18T09:52:29.279Z,2.30
2019-03-18T09:57:26.533Z,3.20
2019-03-18T10:02:22.630Z,2.43
2019-03-18T10:07:18.536Z,4.10
2019-03-18T10:12:14.441Z,2.67
2019-03-18T10:17:10.383Z,2.13
2019-03-18T10:22:06.266Z,2.20
2019-03-18T10:27:02.178Z,2.47
2019-03-18T10:31:58.942Z,2.30
2019-03-18T10:36:54.862Z,1.70
2019-03-18T10:41:50.767Z,2.47
2019-03-18T10:46:46.677Z,1.30
2019-03-18T10:51:42.581Z,3.60
2019-03-18T10:56:41.121Z,2.30
2019-03-18T11:01:36.354Z,2.30
2019-03-18T11:06:32.261Z,1.23
2019-03-18T11:11:28.169Z,1.63
2019-03-18T11:16:24.086Z,2.07
2019-03-18T11:21:20.095Z,2.67
2019-03-18T11:26:16.034Z,1.30
2019-03-18T11:31:11.948Z,2.20
2019-03-18T11:36:07.857Z,1.47
2019-03-18T11:41:03.763Z,2.10
2019-03-18T11:45:59.674Z,2.33
2019-03-18T11:50:55.600Z,1.47
2019-03-18T11:55:51.579Z,1.00
2019-03-18T12:00:47.454Z,1.03
2019-03-18T12:05:43.459Z,1.20
2019-03-18T12:10:39.873Z,0.97
2019-03-18T12:15:36.665Z,1.27
2019-03-18T12:20:33.315Z,1.47
2019-03-18T12:25:29.303Z,1.67
2019-03-18T12:30:28.268Z,1.53
2019-03-18T12:35:24.175Z,1.20
2019-03-18T12:40:20.279Z,2.90
2019-03-18T12:45:17.393Z,2.00
2019-03-18T12:50:36.854Z,2.40
2019-03-18T12:55:21.376Z,1.07
2019-03-18T13:00:27.005Z,2.57
2019-03-18T13:05:23.149Z,1.33
2019-03-18T13:10:21.475Z,1.63
2019-03-18T13:15:18.573Z,1.13
2019-03-18T13:20:18.812Z,2.33
2019-03-18T13:25:15.017Z,1.60
2019-03-18T13:30:19.774Z,1.67
2019-03-18T13:35:15.809Z,2.23
2019-03-18T13:40:14.663Z,1.07
2019-03-18T13:45:13.553Z,0.80
2019-03-18T13:50:14.454Z,1.63
2019-03-18T13:55:10.479Z,1.80
2019-03-18T14:00:14.281Z,1.80
2019-03-18T14:05:10.419Z,1.00
2019-03-18T14:10:31.149Z,2.63
2019-03-18T14:15:27.157Z,1.40
2019-03-18T14:20:24.271Z,1.43
2019-03-18T14:25:20.248Z,1.13
2019-03-18T14:30:18.675Z,0.97
2019-03-18T14:35:14.718Z,1.10
2019-03-18T14:40:24.119Z,1.97
2019-03-18T14:45:23.374Z,0.90
2019-03-18T14:50:19.705Z,2.17
2019-03-18T14:55:16.750Z,1.80
2019-03-18T15:00:39.126Z,1.20
2019-03-18T15:05:36.966Z,1.67
2019-03-18T15:10:32.880Z,1.53
2019-03-18T15:15:28.808Z,1.20
2019-03-18T15:20:27.245Z,1.40
2019-03-18T15:25:27.854Z,1.70
2019-03-18T15:30:23.871Z,1.80
2019-03-18T15:35:19.819Z,1.70
2019-03-18T15:40:21.304Z,1.47
2019-03-18T15:45:21.083Z,1.77
2019-03-18T15:50:20.975Z,1.37
2019-03-18T15:55:17.738Z,1.50
2019-03-18T16:00:22.473Z,1.47
2019-03-18T16:05:18.489Z,2.67
2019-03-18T16:10:15.632Z,0.73
2019-03-18T16:15:13.319Z,1.53
2019-03-18T16:20:14.941Z,1.50
2019-03-18T16:25:11.040Z,2.47
2019-03-18T16:30:10.900Z,0.60
2019-03-18T16:35:09.233Z,1.90
2019-03-18T16:40:08.517Z,1.23
2019-03-18T16:45:10.300Z,1.47
2019-03-18T16:50:10.240Z,1.37
2019-03-18T16:55:10.429Z,2.10
2019-03-18T17:00:11.379Z,0.60
2019-03-18T17:05:08.366Z,1.63
2019-03-18T17:10:13.706Z,1.80
2019-03-18T17:15:11.027Z,1.20
2019-03-18T17:20:13.646Z,1.20
2019-03-18T17:25:19.432Z,1.20
2019-03-18T17:30:16.934Z,1.20
2019-03-18T17:35:13.058Z,1.43
2019-03-18T17:40:12.873Z,1.47
2019-03-18T17:45:13.447Z,1.67
2019-03-18T17:50:16.618Z,1.47
2019-03-18T17:55:19.311Z,2.53
2019-03-18T18:00:19.072Z,2.20
2019-03-18T18:05:15.085Z,2.00
2019-03-18T18:10:11.157Z,1.70
2019-03-18T18:15:08.361Z,1.40
2019-03-18T18:20:07.196Z,1.97
2019-03-18T18:25:07.772Z,2.00
2019-03-18T18:30:09.503Z,1.57
2019-03-18T18:35:09.357Z,2.40
2019-03-18T18:40:09.089Z,1.43
2019-03-18T18:45:06.809Z,2.10
2019-03-18T18:50:05.231Z,1.63
2019-03-18T18:55:07.447Z,1.60
2019-03-18T19:00:09.711Z,1.90
2019-03-18T19:05:08.537Z,1.77
2019-03-18T19:10:07.676Z,1.50
2019-03-18T19:15:07.368Z,1.80
2019-03-18T19:20:07.114Z,2.20
2019-03-18T19:25:07.215Z,3.67
2019-03-18T19:30:12.704Z,3.30
2019-03-18T19:35:08.768Z,2.13
2019-03-18T19:40:13.545Z,2.37
2019-03-18T19:45:11.366Z,4.03
2019-03-18T19:50:35.093Z,7.00
2019-03-18T19:55:31.780Z,4.37
2019-03-18T20:00:29.072Z,4.80
2019-03-18T20:05:25.123Z,4.13
2019-03-18T20:10:21.442Z,4.37
2019-03-18T20:15:18.157Z,3.13
2019-03-18T20:20:15.500Z,3.07
2019-03-18T20:25:12.472Z,4.17
2019-03-18T20:30:14.045Z,2.40
2019-03-18T20:35:15.584Z,2.73
2019-03-18T20:40:13.006Z,2.57
2019-03-18T20:45:17.092Z,2.77
2019-03-18T20:50:18.460Z,2.73
2019-03-18T20:55:15.276Z,2.07
2019-03-18T21:00:17.032Z,3.13
2019-03-18T21:05:12.937Z,2.20
2019-03-18T21:10:11.979Z,2.47
2019-03-18T21:15:10.822Z,2.80
2019-03-18T21:20:10.142Z,3.80
2019-03-18T21:25:06.760Z,4.33
2019-03-18T21:30:17.422Z,3.30
2019-03-18T21:35:13.340Z,3.50
2019-03-18T21:40:11.367Z,3.50
2019-03-18T21:45:10.390Z,3.07
2019-03-18T21:50:07.909Z,3.33
2019-03-18T21:55:06.219Z,2.50
2019-03-18T22:00:05.523Z,2.63
2019-03-18T22:05:01.540Z,3.20
2019-03-18T22:09:57.451Z,3.13
2019-03-18T22:14:53.374Z,4.73
2019-03-18T22:19:49.320Z,3.33
2019-03-18T22:24:45.972Z,3.07
2019-03-18T22:29:41.900Z,4.40
2019-03-18T22:34:37.814Z,6.53
2019-03-18T22:39:33.807Z,3.23
2019-03-18T22:44:29.740Z,5.03
2019-03-18T22:49:25.675Z,3.63
2019-03-18T22:54:24.425Z,3.67
2019-03-18T22:59:20.458Z,5.50
2019-03-18T23:04:16.476Z,5.70
2019-03-18T23:09:12.394Z,4.40
2019-03-18T23:14:08.344Z,4.50
2019-03-18T23:19:04.266Z,3.90
2019-03-18T23:24:03.669Z,3.80
2019-03-18T23:28:59.735Z,4.23
2019-03-18T23:33:55.684Z,4.70
2019-03-18T23:38:51.601Z,4.17
2019-03-18T23:43:47.515Z,3.50
2019-03-18T23:48:43.577Z,4.50
2019-03-18T23:53:40.039Z,5.07
2019-03-18T23:58:36.024Z,4.20
